createdAt,value
2018-11-21T00:00:33.188Z,5.50
2018-11-21T00:03:00.900Z,5.40
2018-11-21T00:05:28.590Z,5.30
2018-11-21T00:07:56.333Z,5.40
2018-11-21T00:10:24.082Z,5.40
2018-11-21T00:12:52.484Z,5.30
2018-11-21T00:15:20.185Z,5.30
2018-11-21T00:17:48.023Z,5.30
2018-11-21T00:20:15.685Z,5.30
2018-11-21T00:22:43.375Z,5.40
2018-11-21T00:25:11.083Z,5.50
2018-11-21T00:27:38.882Z,5.50
2018-11-21T00:30:11.065Z,5.40
2018-11-21T00:32:38.728Z,5.40
2018-11-21T00:35:07.136Z,5.50
2018-11-21T00:37:34.850Z,5.50
2018-11-21T00:40:02.630Z,5.50
2018-11-21T00:42:30.350Z,5.50
2018-11-21T00:44:58.046Z,5.60
2018-11-21T00:47:25.704Z,5.60
2018-11-21T00:49:53.371Z,5.60
2018-11-21T00:52:21.067Z,5.60
2018-11-21T00:54:49.037Z,5.70
2018-11-21T00:57:16.683Z,5.70
2018-11-21T00:59:44.403Z,5.70
2018-11-21T01:02:12.134Z,5.60
2018-11-21T01:04:39.824Z,5.60
2018-11-21T01:07:07.522Z,5.60
2018-11-21T01:09:37.297Z,5.50
2018-11-21T01:12:05.016Z,5.50
2018-11-21T01:14:32.733Z,5.50
2018-11-21T01:17:00.400Z,5.50
2018-11-21T01:19:28.125Z,5.60
2018-11-21T01:21:55.840Z,5.60
2018-11-21T01:24:23.591Z,5.50
2018-11-21T01:26:51.266Z,5.60
2018-11-21T01:29:18.941Z,5.70
2018-11-21T01:31:46.661Z,5.50
2018-11-21T01:34:14.339Z,5.60
2018-11-21T01:36:42.151Z,5.60
2018-11-21T01:39:10.281Z,5.70
2018-11-21T01:41:38.022Z,5.60
2018-11-21T01:44:05.946Z,5.60
2018-11-21T01:46:33.802Z,5.60
2018-11-21T01:49:01.522Z,5.60
2018-11-21T01:51:29.205Z,5.70
2018-11-21T01:53:56.934Z,5.60
2018-11-21T01:56:24.696Z,5.50
2018-11-21T01:58:52.494Z,5.40
2018-11-21T02:01:21.269Z,5.40
2018-11-21T02:03:48.988Z,5.40
2018-11-21T02:06:16.727Z,5.50
2018-11-21T02:08:44.439Z,5.50
2018-11-21T02:11:12.101Z,5.60
2018-11-21T02:13:39.893Z,5.50
2018-11-21T02:16:07.578Z,5.60
2018-11-21T02:18:35.295Z,5.60
2018-11-21T02:21:02.996Z,5.70
2018-11-21T02:23:30.707Z,5.70
2018-11-21T02:25:58.379Z,5.70
2018-11-21T02:28:26.100Z,5.70
2018-11-21T02:30:53.811Z,5.80
2018-11-21T02:33:21.706Z,5.90
2018-11-21T02:40:44.164Z,6.00
